Time;durP1;ratioP1;P1;durP2;ratioP2;P2;SDS_P1;SDS_P2;PMS_P1;PMS_P2;Temp;Humidity;BMP_temperature;BMP_pressure;BME280_temperature;BME280_humidity;BME280_pressure;Samples;Min_cycle;Max_cycle;Signal;HPM_P1;HPM_P2
2021/09/25 00:02:14;;;;;;;12.40;11.20;;;17.10;99.90;;;;;;5108890;28;20282;-74
2021/09/25 00:04:41;;;;;;;12.13;11.10;;;17.10;99.90;;;;;;5108728;28;20233;-74
2021/09/25 00:07:08;;;;;;;14.80;11.23;;;17.10;99.90;;;;;;5108598;28;20634;-74
2021/09/25 00:09:34;;;;;;;11.80;10.60;;;17.10;99.90;;;;;;5108080;28;20232;-73
2021/09/25 00:12:03;;;;;;;13.83;11.50;;;17.10;99.90;;;;;;5108819;28;20269;-73
2021/09/25 00:14:29;;;;;;;12.17;11.07;;;17.10;99.90;;;;;;5108420;28;20222;-73
2021/09/25 00:16:56;;;;;;;12.03;10.93;;;17.10;99.90;;;;;;5108914;28;20209;-73
2021/09/25 00:19:22;;;;;;;12.13;11.03;;;17.10;99.90;;;;;;5108399;28;20732;-73
2021/09/25 00:21:49;;;;;;;11.47;10.00;;;17.10;99.90;;;;;;5108369;28;20198;-73
2021/09/25 00:24:16;;;;;;;12.20;11.10;;;17.10;99.90;;;;;;5108495;28;20230;-73
2021/09/25 00:26:43;;;;;;;12.47;11.17;;;17.10;99.90;;;;;;5108227;28;20217;-73
2021/09/25 00:29:11;;;;;;;12.93;11.63;;;17.10;99.90;;;;;;5108698;28;20233;-73
2021/09/25 00:31:37;;;;;;;11.63;10.47;;;17.10;99.90;;;;;;5108861;28;20290;-72
2021/09/25 00:34:04;;;;;;;11.43;10.33;;;17.20;99.90;;;;;;5108177;28;20709;-73
2021/09/25 00:36:31;;;;;;;12.10;10.97;;;17.10;99.90;;;;;;5108122;28;20250;-73
2021/09/25 00:38:58;;;;;;;12.47;11.07;;;17.20;99.90;;;;;;5108519;28;20198;-73
2021/09/25 00:41:25;;;;;;;11.77;10.67;;;17.20;99.90;;;;;;5108074;28;20201;-73
2021/09/25 00:43:53;;;;;;;11.93;10.60;;;17.20;99.90;;;;;;5108254;28;20229;-73
2021/09/25 00:46:22;;;;;;;12.93;11.70;;;17.10;99.90;;;;;;5108364;28;20212;-73
2021/09/25 00:48:49;;;;;;;12.80;11.47;;;17.20;99.90;;;;;;5108013;28;20218;-71
2021/09/25 00:51:16;;;;;;;11.90;10.90;;;17.20;99.90;;;;;;5108421;28;20278;-72
2021/09/25 00:53:43;;;;;;;12.43;11.23;;;17.20;99.90;;;;;;5108166;28;20214;-72
2021/09/25 00:56:11;;;;;;;11.43;10.27;;;17.20;99.90;;;;;;5108282;28;20663;-71
2021/09/25 00:58:39;;;;;;;12.30;11.13;;;17.20;99.90;;;;;;5108030;28;20293;-71
2021/09/25 01:01:06;;;;;;;11.80;10.57;;;17.20;99.90;;;;;;5108425;28;20303;-71
2021/09/25 01:03:34;;;;;;;12.50;10.83;;;17.10;99.90;;;;;;5107606;28;20221;-74
2021/09/25 01:06:01;;;;;;;11.50;10.37;;;17.20;99.90;;;;;;5107893;28;20676;-73
2021/09/25 01:08:27;;;;;;;12.00;10.87;;;17.20;99.90;;;;;;5108219;28;20375;-73
2021/09/25 01:10:55;;;;;;;12.03;10.83;;;17.20;99.90;;;;;;5107873;28;21024;-73
2021/09/25 01:13:23;;;;;;;11.67;10.20;;;17.20;99.90;;;;;;5107929;28;20222;-73
2021/09/25 01:15:51;;;;;;;11.20;10.13;;;17.20;99.90;;;;;;5088114;28;20210;-74
2021/09/25 01:18:17;;;;;;;12.77;11.17;;;17.10;99.90;;;;;;5087902;28;20264;-74
2021/09/25 01:20:46;;;;;;;11.40;10.40;;;17.20;99.90;;;;;;5087902;28;20287;-74
2021/09/25 01:23:14;;;;;;;12.23;10.63;;;17.20;99.90;;;;;;5091316;28;20207;-74
2021/09/25 01:25:40;;;;;;;11.67;10.57;;;17.20;99.90;;;;;;5091430;28;20235;-73
2021/09/25 01:28:07;;;;;;;12.33;10.87;;;17.10;99.90;;;;;;5091569;28;20199;-72
2021/09/25 01:30:34;;;;;;;12.17;11.07;;;17.10;99.90;;;;;;5091357;28;20207;-72
2021/09/25 01:33:03;;;;;;;11.70;10.60;;;17.10;99.90;;;;;;5091426;28;20210;-73
2021/09/25 01:35:29;;;;;;;11.27;9.80;;;17.10;99.90;;;;;;5091169;28;20210;-73
2021/09/25 01:37:56;;;;;;;11.23;10.13;;;17.10;99.90;;;;;;5090958;28;20256;-72
2021/09/25 01:40:25;;;;;;;11.83;10.70;;;17.10;99.90;;;;;;5090871;28;20726;-73
2021/09/25 01:42:52;;;;;;;13.93;10.77;;;17.10;99.90;;;;;;5091274;28;20297;-73
2021/09/25 01:45:19;;;;;;;13.23;10.87;;;17.10;99.90;;;;;;5091210;28;20630;-73
2021/09/25 01:47:45;;;;;;;11.50;10.50;;;17.10;99.90;;;;;;5090863;28;20213;-72
2021/09/25 01:50:14;;;;;;;11.70;10.63;;;17.10;99.90;;;;;;5091323;28;20248;-72
2021/09/25 01:52:41;;;;;;;11.73;10.50;;;17.10;99.90;;;;;;5090868;28;20264;-72
2021/09/25 01:55:09;;;;;;;15.37;10.40;;;17.10;99.90;;;;;;5091198;28;20238;-72
2021/09/25 01:57:37;;;;;;;11.23;10.33;;;17.10;99.90;;;;;;5090576;28;20234;-72
2021/09/25 02:00:05;;;;;;;11.63;10.63;;;17.10;99.90;;;;;;5090907;28;20194;-72
2021/09/25 02:02:32;;;;;;;12.20;11.00;;;17.10;99.90;;;;;;5102911;28;20244;-72
2021/09/25 02:04:59;;;;;;;11.47;10.27;;;17.10;99.90;;;;;;5111057;28;20233;-72
2021/09/25 02:07:25;;;;;;;13.93;10.70;;;17.10;99.90;;;;;;5111250;28;20295;-72
2021/09/25 02:09:52;;;;;;;13.70;11.10;;;17.10;99.90;;;;;;5111200;28;20255;-72
2021/09/25 02:12:19;;;;;;;13.57;10.43;;;17.10;99.90;;;;;;5111139;28;20203;-72
2021/09/25 02:14:47;;;;;;;11.70;10.47;;;17.10;99.90;;;;;;5110969;28;20218;-72
2021/09/25 02:17:14;;;;;;;11.63;10.53;;;17.20;99.90;;;;;;5111083;28;20202;-72
2021/09/25 02:19:40;;;;;;;12.00;9.77;;;17.20;99.90;;;;;;5111004;28;20234;-72
2021/09/25 02:22:07;;;;;;;12.63;10.27;;;17.10;99.90;;;;;;5110887;28;20210;-72
2021/09/25 02:24:34;;;;;;;14.27;11.17;;;17.10;99.90;;;;;;5110645;28;20229;-72
2021/09/25 02:27:02;;;;;;;10.90;9.80;;;17.20;99.90;;;;;;5110604;28;20210;-72
2021/09/25 02:29:29;;;;;;;12.53;9.53;;;17.20;99.90;;;;;;5110240;28;20210;-72
2021/09/25 02:31:57;;;;;;;11.20;10.17;;;17.20;99.90;;;;;;5110067;28;20238;-72
2021/09/25 02:34:24;;;;;;;12.00;10.80;;;17.10;99.90;;;;;;5109860;28;20206;-73
2021/09/25 02:36:50;;;;;;;10.67;9.63;;;17.20;99.90;;;;;;5111305;28;20206;-72
2021/09/25 02:39:17;;;;;;;12.07;10.23;;;17.20;99.90;;;;;;5110788;28;20262;-73
2021/09/25 02:41:44;;;;;;;10.37;9.37;;;17.20;99.90;;;;;;5110331;28;20233;-73
2021/09/25 02:44:10;;;;;;;10.13;9.10;;;17.20;99.90;;;;;;5110640;28;20222;-73
2021/09/25 02:46:37;;;;;;;11.37;10.10;;;17.10;99.90;;;;;;5110232;28;20234;-73
2021/09/25 02:49:05;;;;;;;11.43;10.03;;;17.10;99.90;;;;;;5109829;28;20767;-74
2021/09/25 02:51:32;;;;;;;9.87;9.07;;;17.10;99.90;;;;;;5109764;28;20237;-73
2021/09/25 02:53:58;;;;;;;11.13;10.10;;;17.10;99.90;;;;;;5110160;28;20202;-74
2021/09/25 02:56:25;;;;;;;10.47;9.27;;;17.10;99.90;;;;;;5110303;28;20198;-74
2021/09/25 02:58:51;;;;;;;11.70;9.90;;;17.10;99.90;;;;;;5109656;27;20265;-74
2021/09/25 03:01:18;;;;;;;10.67;9.30;;;17.10;99.90;;;;;;5109937;28;20202;-74
2021/09/25 03:03:45;;;;;;;10.87;9.77;;;17.10;99.90;;;;;;5109818;28;20262;-73
2021/09/25 03:06:13;;;;;;;10.17;9.27;;;17.10;99.90;;;;;;5109691;28;20202;-73
2021/09/25 03:08:39;;;;;;;10.40;9.50;;;17.10;99.90;;;;;;5109982;28;20206;-72
2021/09/25 03:11:06;;;;;;;9.93;8.93;;;17.00;99.90;;;;;;5109900;28;20294;-72
2021/09/25 03:13:32;;;;;;;10.23;9.33;;;17.10;99.90;;;;;;5109551;28;20353;-72
2021/09/25 03:16:00;;;;;;;10.93;9.60;;;17.10;99.90;;;;;;5109593;28;20676;-72
2021/09/25 03:18:27;;;;;;;9.73;8.93;;;17.10;99.90;;;;;;5109000;28;20202;-72
2021/09/25 03:20:53;;;;;;;13.37;9.40;;;17.00;99.90;;;;;;5109672;28;20199;-72
2021/09/25 03:23:21;;;;;;;10.10;9.10;;;17.00;99.90;;;;;;5109681;28;20258;-72
2021/09/25 03:25:48;;;;;;;9.87;8.87;;;17.00;99.90;;;;;;5109528;28;20274;-74
2021/09/25 03:28:14;;;;;;;10.23;9.27;;;17.00;99.90;;;;;;5109663;28;20648;-74
2021/09/25 03:30:41;;;;;;;10.17;9.27;;;17.00;99.90;;;;;;5109272;28;20602;-74
2021/09/25 03:33:08;;;;;;;9.60;8.80;;;17.10;99.90;;;;;;5109430;28;20229;-74
2021/09/25 03:35:34;;;;;;;10.53;9.53;;;17.10;99.90;;;;;;5109059;28;20625;-74
2021/09/25 03:38:01;;;;;;;10.70;9.13;;;17.10;99.90;;;;;;5109288;28;20732;-74
2021/09/25 03:40:30;;;;;;;10.53;9.47;;;17.10;99.90;;;;;;5109639;28;20206;-74
2021/09/25 03:42:57;;;;;;;11.50;8.77;;;17.10;99.90;;;;;;5108338;28;20210;-74
2021/09/25 03:45:24;;;;;;;9.60;8.80;;;17.10;99.90;;;;;;5109304;28;20261;-74
2021/09/25 03:47:55;;;;;;;10.67;9.50;;;17.00;99.90;;;;;;5109217;28;20218;-74
2021/09/25 03:50:21;;;;;;;9.50;8.53;;;17.10;99.90;;;;;;5109323;28;20281;-74
2021/09/25 03:52:48;;;;;;;9.83;8.53;;;17.10;99.90;;;;;;5109015;28;20202;-74
2021/09/25 03:55:15;;;;;;;9.87;8.73;;;17.00;99.90;;;;;;5108998;28;20644;-74
2021/09/25 03:57:43;;;;;;;13.17;9.03;;;17.00;99.90;;;;;;5108834;28;20299;-74
2021/09/25 04:00:10;;;;;;;9.83;8.83;;;17.00;99.90;;;;;;5109218;28;20664;-74
2021/09/25 04:02:37;;;;;;;10.00;9.07;;;17.00;99.90;;;;;;5108526;28;20611;-74
2021/09/25 04:05:04;;;;;;;10.63;9.63;;;17.00;99.90;;;;;;5108856;28;20275;-74
2021/09/25 04:07:31;;;;;;;10.47;9.10;;;17.00;99.90;;;;;;5108756;28;20214;-74
2021/09/25 04:09:57;;;;;;;11.17;10.10;;;16.90;99.90;;;;;;5108890;28;20318;-73
2021/09/25 04:12:24;;;;;;;12.77;10.73;;;16.80;99.90;;;;;;5108807;28;20222;-74
2021/09/25 04:14:52;;;;;;;14.77;12.33;;;16.70;99.90;;;;;;5108848;28;20571;-73
2021/09/25 04:17:19;;;;;;;12.30;10.63;;;16.60;99.90;;;;;;5108926;28;20243;-74
2021/09/25 04:19:45;;;;;;;12.57;11.27;;;16.60;99.90;;;;;;5108712;28;20206;-73
2021/09/25 04:22:12;;;;;;;13.77;11.23;;;16.60;99.90;;;;;;5108557;28;20263;-73
2021/09/25 04:24:38;;;;;;;12.57;11.27;;;16.60;99.90;;;;;;5108808;28;20226;-73
2021/09/25 04:27:05;;;;;;;12.57;10.93;;;16.60;99.90;;;;;;5108365;28;20228;-73
2021/09/25 04:29:32;;;;;;;12.67;10.67;;;16.60;99.90;;;;;;5108730;28;20256;-74
2021/09/25 04:31:59;;;;;;;11.10;10.00;;;16.60;99.90;;;;;;5108348;28;20202;-74
2021/09/25 04:34:26;;;;;;;12.50;11.20;;;16.50;99.90;;;;;;5108577;28;20206;-73
2021/09/25 04:36:53;;;;;;;12.80;10.87;;;16.50;99.90;;;;;;5108299;28;20210;-73
2021/09/25 04:39:19;;;;;;;13.43;11.77;;;16.50;99.90;;;;;;5108412;28;20645;-73
2021/09/25 04:41:46;;;;;;;12.40;11.13;;;16.40;99.90;;;;;;5108295;28;20202;-72
2021/09/25 04:44:16;;;;;;;12.63;11.20;;;16.40;99.90;;;;;;5108406;28;20209;-72
2021/09/25 04:46:43;;;;;;;12.67;11.37;;;16.40;99.90;;;;;;5108483;28;20202;-72
2021/09/25 04:49:11;;;;;;;15.80;11.80;;;16.40;99.90;;;;;;5108432;28;20222;-74
2021/09/25 04:51:38;;;;;;;14.07;12.50;;;16.40;99.90;;;;;;5108279;28;20202;-73
2021/09/25 04:54:05;;;;;;;15.07;12.10;;;16.30;99.90;;;;;;5108226;28;20625;-72
2021/09/25 04:56:32;;;;;;;14.27;11.87;;;16.30;99.90;;;;;;5109626;28;20206;-73
2021/09/25 04:58:58;;;;;;;13.80;12.50;;;16.20;99.90;;;;;;5112251;28;20235;-73
2021/09/25 05:01:25;;;;;;;12.70;11.03;;;16.20;99.90;;;;;;5112384;28;20210;-73
2021/09/25 05:03:51;;;;;;;13.70;11.77;;;16.20;99.90;;;;;;5112007;28;20202;-73
2021/09/25 05:06:19;;;;;;;14.03;12.53;;;16.20;99.90;;;;;;5111955;28;20719;-73
2021/09/25 05:08:46;;;;;;;14.13;12.03;;;16.20;99.90;;;;;;5112390;28;20235;-72
2021/09/25 05:11:12;;;;;;;12.83;11.63;;;16.20;99.90;;;;;;5112040;28;20221;-72
2021/09/25 05:13:39;;;;;;;12.60;11.33;;;16.20;99.90;;;;;;5112105;28;20260;-72
2021/09/25 05:16:06;;;;;;;15.33;12.03;;;16.20;99.90;;;;;;5112195;28;20206;-72
2021/09/25 05:18:32;;;;;;;13.00;11.63;;;16.20;99.90;;;;;;5111912;28;20206;-72
2021/09/25 05:20:59;;;;;;;12.70;11.13;;;16.20;99.90;;;;;;5112010;28;20259;-72
2021/09/25 05:23:27;;;;;;;15.40;11.17;;;16.20;99.90;;;;;;5111351;28;20206;-72
2021/09/25 05:25:53;;;;;;;15.20;11.00;;;16.20;99.90;;;;;;5111903;28;20294;-72
2021/09/25 05:28:20;;;;;;;12.90;10.53;;;16.20;99.90;;;;;;5111840;27;20241;-72
2021/09/25 05:30:47;;;;;;;12.07;10.63;;;16.20;99.90;;;;;;5111937;28;20294;-72
2021/09/25 05:33:13;;;;;;;11.83;10.33;;;16.20;99.90;;;;;;5112131;28;20294;-73
2021/09/25 05:35:40;;;;;;;11.63;10.53;;;16.20;99.90;;;;;;5111461;28;20282;-73
2021/09/25 05:38:06;;;;;;;12.67;11.43;;;16.20;99.90;;;;;;5111888;28;20245;-73
2021/09/25 05:40:34;;;;;;;10.90;9.80;;;16.20;99.90;;;;;;5111403;28;20680;-72
2021/09/25 05:43:01;;;;;;;11.53;10.00;;;16.20;99.90;;;;;;5111219;28;20573;-73
2021/09/25 05:45:28;;;;;;;11.40;10.23;;;16.30;99.90;;;;;;5111293;27;20261;-72
2021/09/25 05:47:55;;;;;;;12.40;10.80;;;16.20;99.90;;;;;;5110564;28;20298;-72
2021/09/25 05:50:21;;;;;;;12.20;10.10;;;16.30;99.90;;;;;;5111320;28;20210;-72
2021/09/25 05:52:48;;;;;;;11.77;10.50;;;16.30;99.90;;;;;;5111226;28;20255;-74
2021/09/25 05:55:15;;;;;;;12.77;10.00;;;16.30;99.90;;;;;;5110959;27;20565;-72
2021/09/25 05:57:44;;;;;;;11.03;9.90;;;16.30;99.90;;;;;;5110877;28;20643;-72
2021/09/25 06:00:11;;;;;;;11.30;10.20;;;16.30;99.90;;;;;;5110932;28;20203;-72
2021/09/25 06:02:39;;;;;;;12.53;9.63;;;16.30;99.90;;;;;;5110760;28;20583;-72
2021/09/25 06:05:07;;;;;;;10.03;9.13;;;16.40;99.90;;;;;;5110852;28;20241;-72
2021/09/25 06:07:34;;;;;;;13.23;9.87;;;16.40;99.90;;;;;;5109923;28;20391;-72
2021/09/25 06:10:00;;;;;;;10.87;9.60;;;16.40;99.90;;;;;;5110493;28;20637;-72
2021/09/25 06:12:27;;;;;;;10.00;9.10;;;16.40;99.90;;;;;;5110145;28;20226;-74
2021/09/25 06:14:56;;;;;;;13.30;10.10;;;16.40;99.90;;;;;;5109458;27;20243;-73
2021/09/25 06:17:23;;;;;;;10.67;9.27;;;16.40;99.90;;;;;;5096751;28;20202;-73
2021/09/25 06:19:50;;;;;;;10.30;9.30;;;16.50;99.90;;;;;;5086502;28;20221;-73
2021/09/25 06:22:17;;;;;;;11.83;10.17;;;16.50;99.90;;;;;;5086295;28;20287;-73
2021/09/25 06:24:44;;;;;;;11.63;10.00;;;16.50;99.90;;;;;;5086636;28;20211;-73
2021/09/25 06:27:10;;;;;;;10.80;9.80;;;16.40;99.90;;;;;;5086690;28;20203;-73
2021/09/25 06:29:39;;;;;;;10.20;9.30;;;16.50;99.90;;;;;;5086482;28;20673;-73
2021/09/25 06:32:08;;;;;;;10.73;9.63;;;16.50;99.90;;;;;;5086604;28;20207;-76
2021/09/25 06:34:34;;;;;;;11.43;9.20;;;16.50;99.90;;;;;;5086601;28;20311;-76
2021/09/25 06:37:01;;;;;;;10.80;9.67;;;16.50;99.90;;;;;;5086159;28;20263;-72
2021/09/25 06:39:27;;;;;;;11.90;10.80;;;16.50;99.90;;;;;;5086247;28;20699;-73
2021/09/25 06:41:54;;;;;;;13.93;10.53;;;16.50;99.90;;;;;;5103698;28;20254;-73
2021/09/25 06:44:21;;;;;;;12.27;10.97;;;16.50;99.90;;;;;;5106905;28;20234;-73
2021/09/25 06:46:47;;;;;;;11.50;10.30;;;16.50;99.90;;;;;;5106200;28;20711;-72
2021/09/25 06:49:15;;;;;;;10.97;9.90;;;16.50;99.90;;;;;;5106036;27;20719;-73
2021/09/25 06:51:42;;;;;;;12.20;10.30;;;16.50;99.90;;;;;;5106458;28;20210;-73
2021/09/25 06:54:09;;;;;;;11.83;10.47;;;16.50;99.90;;;;;;5106182;28;20699;-72
2021/09/25 06:56:36;;;;;;;11.50;10.30;;;16.40;99.90;;;;;;5106999;28;20245;-74
2021/09/25 06:59:02;;;;;;;12.70;10.13;;;16.50;99.90;;;;;;5105876;28;20241;-74
2021/09/25 07:01:29;;;;;;;11.57;10.47;;;16.50;99.90;;;;;;5106451;28;20225;-73
2021/09/25 07:03:56;;;;;;;12.17;10.90;;;16.50;99.90;;;;;;5106080;28;20210;-74
2021/09/25 07:06:24;;;;;;;14.63;10.77;;;16.50;99.90;;;;;;5105751;28;20864;-73
2021/09/25 07:08:50;;;;;;;13.83;10.73;;;16.50;99.90;;;;;;5104490;28;20210;-73
2021/09/25 07:11:17;;;;;;;11.43;10.40;;;16.50;99.90;;;;;;5099132;28;20755;-74
2021/09/25 07:13:44;;;;;;;13.17;10.20;;;16.60;99.90;;;;;;5096280;28;20222;-73
2021/09/25 07:16:14;;;;;;;11.70;10.60;;;16.70;99.90;;;;;;5088513;28;20282;-73
2021/09/25 07:18:40;;;;;;;11.83;10.57;;;16.80;99.90;;;;;;5085632;28;20207;-73
2021/09/25 07:21:07;;;;;;;12.40;11.17;;;16.80;99.90;;;;;;5085861;28;20214;-75
2021/09/25 07:23:36;;;;;;;15.57;10.53;;;16.90;99.90;;;;;;5087882;28;20214;-75
2021/09/25 07:26:04;;;;;;;12.23;11.13;;;17.00;99.90;;;;;;5084940;28;20231;-75
2021/09/25 07:28:30;;;;;;;11.77;10.57;;;17.00;99.90;;;;;;5085419;28;20284;-75
2021/09/25 07:30:57;;;;;;;13.43;10.77;;;17.10;99.90;;;;;;5089736;28;20234;-74
2021/09/25 07:33:24;;;;;;;11.90;10.70;;;17.10;99.90;;;;;;5095942;28;20206;-73
2021/09/25 07:35:50;;;;;;;11.67;10.47;;;17.20;99.90;;;;;;5108605;28;20210;-73
2021/09/25 07:38:17;;;;;;;12.27;10.50;;;17.20;99.90;;;;;;5107997;28;20205;-73
2021/09/25 07:40:45;;;;;;;12.03;10.83;;;17.20;99.90;;;;;;5108183;28;20213;-73
2021/09/25 07:43:12;;;;;;;12.07;10.93;;;17.30;99.90;;;;;;5108167;28;20294;-73
2021/09/25 07:45:38;;;;;;;13.07;10.10;;;17.30;99.90;;;;;;5107762;28;20800;-73
2021/09/25 07:48:05;;;;;;;14.10;10.60;;;17.30;99.90;;;;;;5108089;28;20266;-73
2021/09/25 07:50:32;;;;;;;12.43;11.00;;;17.30;99.90;;;;;;5107941;28;20251;-73
2021/09/25 07:52:59;;;;;;;12.70;11.33;;;17.40;99.90;;;;;;5108928;28;20266;-74
2021/09/25 07:55:26;;;;;;;11.43;10.33;;;17.40;99.90;;;;;;5109328;28;20616;-73
2021/09/25 07:57:54;;;;;;;12.23;11.27;;;17.40;99.90;;;;;;5107902;28;21079;-73
2021/09/25 08:00:22;;;;;;;12.03;10.67;;;17.40;99.90;;;;;;5109222;28;20202;-73
2021/09/25 08:02:49;;;;;;;14.03;12.07;;;17.40;99.90;;;;;;5108832;28;20209;-73
2021/09/25 08:05:17;;;;;;;12.97;11.60;;;17.40;99.90;;;;;;5108799;27;20613;-73
2021/09/25 08:07:44;;;;;;;11.90;10.57;;;17.40;99.90;;;;;;5108641;28;20206;-73
2021/09/25 08:10:13;;;;;;;14.90;11.50;;;17.40;99.90;;;;;;5108934;28;20226;-73
2021/09/25 08:12:40;;;;;;;12.03;10.93;;;17.40;99.90;;;;;;5108838;28;20230;-73
2021/09/25 08:15:10;;;;;;;12.40;11.13;;;17.50;99.90;;;;;;5108961;28;20251;-73
2021/09/25 08:17:37;;;;;;;12.57;11.27;;;17.40;99.90;;;;;;5108839;28;20218;-73
2021/09/25 08:20:06;;;;;;;13.13;11.87;;;17.50;99.90;;;;;;5108879;28;20210;-73
2021/09/25 08:22:33;;;;;;;16.93;12.60;;;17.50;99.90;;;;;;5108277;28;20245;-73
2021/09/25 08:25:00;;;;;;;14.47;12.97;;;17.40;99.90;;;;;;5107651;28;20233;-73
2021/09/25 08:27:26;;;;;;;14.30;12.80;;;17.40;99.90;;;;;;5108717;28;20256;-73
2021/09/25 08:29:53;;;;;;;13.43;12.13;;;17.30;99.90;;;;;;5108610;28;20214;-73
2021/09/25 08:32:21;;;;;;;15.13;12.27;;;17.30;99.90;;;;;;5107595;28;20680;-73
2021/09/25 08:34:48;;;;;;;14.27;12.73;;;17.30;99.90;;;;;;5108529;28;20288;-74
2021/09/25 08:37:15;;;;;;;13.87;12.60;;;17.30;99.90;;;;;;5108215;28;20717;-73
2021/09/25 08:39:42;;;;;;;14.80;13.37;;;17.40;99.90;;;;;;5108376;28;20298;-74
2021/09/25 08:42:12;;;;;;;15.10;13.60;;;17.40;99.90;;;;;;5108677;28;20251;-73
2021/09/25 08:44:39;;;;;;;13.27;11.87;;;17.50;99.90;;;;;;5108583;28;20222;-74
2021/09/25 08:47:06;;;;;;;13.97;12.63;;;17.50;99.90;;;;;;5107795;28;20378;-73
2021/09/25 08:49:34;;;;;;;14.07;12.53;;;17.60;99.90;;;;;;5108534;28;20299;-73
2021/09/25 08:52:01;;;;;;;15.83;12.43;;;17.70;99.90;;;;;;5107970;28;20733;-73
2021/09/25 08:54:28;;;;;;;14.30;11.87;;;17.70;99.90;;;;;;5108709;28;20217;-73
2021/09/25 08:56:55;;;;;;;13.10;11.83;;;17.70;99.90;;;;;;5107830;28;20275;-74
2021/09/25 08:59:22;;;;;;;13.47;12.10;;;17.70;99.90;;;;;;5108088;28;20238;-74
2021/09/25 09:01:49;;;;;;;12.63;11.43;;;17.70;99.90;;;;;;5108190;28;20203;-74
2021/09/25 09:04:17;;;;;;;11.60;10.60;;;17.70;99.90;;;;;;5108112;28;20749;-73
2021/09/25 09:06:48;;;;;;;12.17;11.07;;;17.80;99.90;;;;;;5107923;28;20697;-73
2021/09/25 09:09:16;;;;;;;12.30;11.03;;;17.70;99.90;;;;;;5108120;28;20230;-73
2021/09/25 09:11:47;;;;;;;13.00;11.70;;;17.80;99.90;;;;;;5108034;28;20672;-73
2021/09/25 09:14:15;;;;;;;12.23;11.07;;;17.80;99.90;;;;;;5108283;28;20216;-74
2021/09/25 09:16:42;;;;;;;11.87;10.77;;;17.80;99.90;;;;;;5108202;28;20206;-73
2021/09/25 09:19:09;;;;;;;12.20;11.10;;;17.80;99.90;;;;;;5108228;28;20210;-73
2021/09/25 09:21:36;;;;;;;12.53;11.30;;;17.80;99.90;;;;;;5108146;28;20217;-73
2021/09/25 09:24:07;;;;;;;12.30;11.30;;;17.80;99.90;;;;;;5108109;28;20206;-73
2021/09/25 09:26:36;;;;;;;14.30;11.60;;;17.70;99.90;;;;;;5107902;28;20654;-74
2021/09/25 09:29:05;;;;;;;13.17;11.87;;;17.70;99.90;;;;;;5107569;28;20683;-73
2021/09/25 09:31:31;;;;;;;13.33;11.93;;;17.70;99.90;;;;;;5106982;28;20243;-73
2021/09/25 09:34:00;;;;;;;13.07;11.67;;;17.70;99.90;;;;;;5107775;28;20210;-73
2021/09/25 09:36:30;;;;;;;12.93;11.73;;;17.80;99.90;;;;;;5107944;28;21074;-73
2021/09/25 09:39:06;;;;;;;13.23;12.00;;;17.70;99.90;;;;;;5107839;28;20297;-74
2021/09/25 09:41:35;;;;;;;13.20;11.80;;;17.70;99.90;;;;;;5108120;28;20263;-73
2021/09/25 09:44:04;;;;;;;14.07;12.67;;;17.70;99.90;;;;;;5111773;28;20209;-74
2021/09/25 09:46:38;;;;;;;16.30;12.63;;;17.80;99.90;;;;;;5111441;28;20275;-73
2021/09/25 09:49:07;;;;;;;13.87;12.70;;;17.80;99.90;;;;;;5111669;28;20553;-74
2021/09/25 09:51:36;;;;;;;14.93;13.57;;;17.70;99.90;;;;;;5111399;28;20198;-73
2021/09/25 09:54:02;;;;;;;14.03;12.70;;;17.70;99.90;;;;;;5111546;28;20202;-74
2021/09/25 09:56:30;;;;;;;14.83;13.50;;;17.70;99.90;;;;;;5111589;28;20271;-73
2021/09/25 09:58:59;;;;;;;15.17;13.73;;;17.60;99.90;;;;;;5110819;28;20234;-73
2021/09/25 10:01:26;;;;;;;14.17;12.97;;;17.70;99.90;;;;;;5111765;28;20247;-73
2021/09/25 10:03:53;;;;;;;12.80;11.60;;;17.70;99.90;;;;;;5111506;28;20210;-73
2021/09/25 10:06:20;;;;;;;14.13;12.63;;;17.70;99.90;;;;;;5111218;28;20245;-73
2021/09/25 10:08:47;;;;;;;13.50;12.37;;;17.80;99.90;;;;;;5111195;28;21039;-73
2021/09/25 10:11:16;;;;;;;14.37;13.07;;;17.80;99.90;;;;;;5111214;28;20640;-74
2021/09/25 10:13:44;;;;;;;15.97;13.33;;;17.80;99.90;;;;;;5111178;28;20202;-73
2021/09/25 10:16:12;;;;;;;15.03;13.60;;;17.90;99.90;;;;;;5110757;28;20202;-74
2021/09/25 10:18:40;;;;;;;12.20;11.20;;;17.90;99.90;;;;;;5111160;28;20294;-73
2021/09/25 10:21:10;;;;;;;13.87;12.63;;;18.00;99.90;;;;;;5110445;28;20210;-73
2021/09/25 10:23:40;;;;;;;12.23;11.10;;;18.10;99.90;;;;;;5110919;28;20210;-74
2021/09/25 10:26:07;;;;;;;11.93;10.93;;;18.20;99.90;;;;;;5110650;28;20202;-73
2021/09/25 10:28:33;;;;;;;11.53;10.57;;;18.40;99.90;;;;;;5110639;28;20202;-74
2021/09/25 10:31:01;;;;;;;12.50;11.20;;;18.50;99.90;;;;;;5104819;28;20198;-73
2021/09/25 10:33:28;;;;;;;10.90;9.93;;;18.80;99.90;;;;;;5088466;28;20230;-73
2021/09/25 10:35:55;;;;;;;11.37;9.30;;;19.00;99.90;;;;;;5090112;28;20264;-73
2021/09/25 10:38:33;;;;;;;9.10;8.47;;;19.10;99.90;;;;;;5090311;28;20266;-73
2021/09/25 10:41:14;;;;;;;9.60;8.77;;;19.10;99.90;;;;;;5089671;28;20637;-73
2021/09/25 10:43:43;;;;;;;10.17;9.47;;;19.00;99.90;;;;;;5090216;28;20222;-73
2021/09/25 10:46:12;;;;;;;10.47;9.37;;;19.10;99.90;;;;;;5089807;28;20305;-73
2021/09/25 10:48:47;;;;;;;9.20;8.50;;;19.10;99.90;;;;;;5089888;28;20229;-73
2021/09/25 10:51:16;;;;;;;9.30;8.50;;;19.00;99.90;;;;;;5089731;28;20197;-73
2021/09/25 10:53:44;;;;;;;9.10;8.50;;;19.00;99.90;;;;;;5089384;28;20282;-73
2021/09/25 10:56:16;;;;;;;8.70;8.00;;;19.00;99.90;;;;;;5089768;28;20276;-73
2021/09/25 10:58:43;;;;;;;8.80;8.03;;;19.00;99.90;;;;;;5089432;28;20239;-73
2021/09/25 11:01:13;;;;;;;9.10;8.50;;;19.10;99.90;;;;;;5089851;28;20339;-73
2021/09/25 11:03:59;;;;;;;9.67;8.87;;;19.10;99.90;;;;;;5089639;28;20203;-73
2021/09/25 11:06:31;;;;;;;9.00;8.40;;;19.10;99.90;;;;;;5089392;28;20225;-73
2021/09/25 11:09:00;;;;;;;8.53;7.60;;;19.20;99.90;;;;;;5089464;28;20268;-73
2021/09/25 11:11:42;;;;;;;7.20;6.73;;;19.30;99.90;;;;;;5089171;28;20223;-73
2021/09/25 11:14:12;;;;;;;9.17;8.27;;;19.40;99.90;;;;;;5089415;28;20618;-73
2021/09/25 11:16:48;;;;;;;8.63;7.93;;;19.50;99.90;;;;;;5089458;28;20661;-73
2021/09/25 11:19:37;;;;;;;6.97;6.47;;;19.60;99.90;;;;;;5089651;28;20399;-73
2021/09/25 11:22:06;;;;;;;9.13;7.50;;;19.60;99.90;;;;;;5088965;28;20723;-73
2021/09/25 11:24:35;;;;;;;8.33;7.40;;;19.60;99.90;;;;;;5089506;28;20202;-73
2021/09/25 11:27:03;;;;;;;7.97;7.27;;;19.60;99.90;;;;;;5089330;28;20587;-73
2021/09/25 11:29:30;;;;;;;8.60;7.73;;;19.50;99.90;;;;;;5089493;28;20230;-73
2021/09/25 11:32:08;;;;;;;7.27;6.70;;;19.50;99.90;;;;;;5089140;28;20259;-73
2021/09/25 11:34:36;;;;;;;8.17;7.40;;;19.50;99.90;;;;;;5089351;28;20244;-73
2021/09/25 11:37:06;;;;;;;7.50;7.00;;;19.50;99.90;;;;;;5088706;28;20229;-73
2021/09/25 11:39:38;;;;;;;8.30;7.50;;;19.50;99.90;;;;;;5088870;28;20669;-73
2021/09/25 11:42:10;;;;;;;7.43;6.93;;;19.50;99.90;;;;;;5089132;28;20211;-73
2021/09/25 11:44:49;;;;;;;7.10;6.50;;;19.60;99.90;;;;;;5088985;28;20304;-73
2021/09/25 11:47:32;;;;;;;6.70;6.20;;;19.60;99.90;;;;;;5088662;28;20242;-73
2021/09/25 11:50:01;;;;;;;6.90;6.40;;;19.60;99.90;;;;;;5089062;28;20289;-73
2021/09/25 11:52:28;;;;;;;6.47;6.07;;;19.60;99.90;;;;;;5088476;28;20548;-73
2021/09/25 11:54:55;;;;;;;6.60;6.00;;;19.60;99.90;;;;;;5088836;28;20202;-73
2021/09/25 11:57:24;;;;;;;6.57;5.97;;;19.70;99.90;;;;;;5088635;28;20211;-73
2021/09/25 11:59:52;;;;;;;6.00;5.50;;;19.80;99.90;;;;;;5088731;28;20345;-73
2021/09/25 12:02:42;;;;;;;6.17;5.67;;;19.90;99.90;;;;;;5088660;28;20230;-73
2021/09/25 12:05:23;;;;;;;6.27;5.67;;;20.00;99.90;;;;;;5087855;28;20563;-73
2021/09/25 12:07:49;;;;;;;6.03;5.53;;;20.10;99.90;;;;;;5088297;28;20271;-73
2021/09/25 12:10:18;;;;;;;6.63;6.23;;;20.20;99.90;;;;;;5088612;28;20240;-73
2021/09/25 12:12:45;;;;;;;6.30;5.80;;;20.10;99.90;;;;;;5088295;28;20252;-73
2021/09/25 12:15:12;;;;;;;6.40;5.90;;;20.00;99.90;;;;;;5088311;28;20211;-73
2021/09/25 12:17:39;;;;;;;8.00;7.20;;;19.90;99.90;;;;;;5088532;28;20243;-73
2021/09/25 12:20:17;;;;;;;9.17;8.47;;;19.90;99.90;;;;;;5088208;28;20230;-73
2021/09/25 12:22:45;;;;;;;6.60;6.20;;;19.80;99.90;;;;;;5088148;28;20211;-73
2021/09/25 12:25:13;;;;;;;6.80;6.30;;;19.80;99.90;;;;;;5088181;28;20323;-73
2021/09/25 12:27:41;;;;;;;6.57;6.00;;;19.80;99.90;;;;;;5087984;28;20719;-73
2021/09/25 12:30:10;;;;;;;7.00;6.50;;;19.80;99.90;;;;;;5088226;28;20305;-73
2021/09/25 12:32:37;;;;;;;7.63;7.03;;;19.80;99.90;;;;;;5088086;28;20718;-73
2021/09/25 12:35:16;;;;;;;7.60;7.00;;;19.80;99.90;;;;;;5088045;28;20867;-73
2021/09/25 12:37:49;;;;;;;6.83;6.30;;;19.80;99.90;;;;;;5088064;28;20194;-73